Terminal Aerodrome Forecast
Issued by NWS Jackson, MS

Home | Current Version | Previous Version | Text Only | Print | Product List | Glossary On
Versions: 1 2 3 4 5 6 7 8 9 10 11 12 13
000
FTUS44 KJAN 251744
TAFGWO
TAF
KGWO 251744Z 2518/2618 22013G22KT P6SM VCSH SCT012 BKN018
     FM252200 22009KT P6SM FEW025
     FM261500 34005KT P6SM SCT015=

USA.gov is the U.S. government's official web portal to all federal, state and local government web resources and services.